Time;durP1;ratioP1;P1;durP2;ratioP2;P2;SDS_P1;SDS_P2;PMS_P1;PMS_P2;Temp;Humidity;BMP_temperature;BMP_pressure;BME280_temperature;BME280_humidity;BME280_pressure;Samples;Min_cycle;Max_cycle;Signal;HPM_P1;HPM_P2
2023/02/21 02:15:14;;;;;;;37.73;16.77;;;8.70;99.90;;;;;;4956118;28;20684;-70
2023/02/21 02:18:05;;;;;;;41.30;15.35;;;8.70;99.90;;;;;;4934492;28;21640;-65
2023/02/21 02:20:56;;;;;;;32.15;14.45;;;8.70;99.90;;;;;;4935338;28;20025;-68
2023/02/21 02:23:33;;;;;;;37.90;15.07;;;8.80;99.90;;;;;;4951719;28;20033;-73
2023/02/21 02:26:24;;;;;;;44.03;16.40;;;8.80;99.90;;;;;;4954451;28;20500;-70
2023/02/21 02:29:06;;;;;;;38.65;15.80;;;8.90;99.90;;;;;;4952058;28;20020;-76
2023/02/21 02:31:53;;;;;;;40.08;13.90;;;8.90;99.90;;;;;;4954101;28;20049;-67
2023/02/21 02:34:41;;;;;;;33.58;14.20;;;8.90;99.90;;;;;;4953200;28;20025;-75
2023/02/21 02:37:24;;;;;;;33.92;13.88;;;9.00;99.90;;;;;;4955583;28;20028;-65
2023/02/21 02:39:59;;;;;;;29.58;14.10;;;8.90;99.90;;;;;;4968563;28;20335;-67
2023/02/21 02:42:55;;;;;;;39.67;14.65;;;8.90;99.90;;;;;;4955320;28;20036;-66
2023/02/21 02:45:27;;;;;;;;;;;9.00;99.90;;;;;;4955086;28;20428;-75
2023/02/21 02:48:01;;;;;;;34.20;13.73;;;9.00;99.90;;;;;;4955949;28;20230;-66
2023/02/21 02:50:27;;;;;;;32.97;15.40;;;9.00;99.90;;;;;;4956325;28;20055;-68
2023/02/21 02:52:55;;;;;;;41.90;14.57;;;9.00;99.90;;;;;;4967451;28;20024;-69
2023/02/21 02:55:29;;;;;;;33.47;14.05;;;8.90;99.90;;;;;;4961840;28;20058;-66
2023/02/21 02:57:55;;;;;;;34.55;15.65;;;9.00;99.90;;;;;;4955036;28;20124;-66
2023/02/21 03:00:22;;;;;;;42.63;15.13;;;9.00;99.90;;;;;;4935392;28;20033;-65
2023/02/21 03:03:15;;;;;;;42.20;16.13;;;9.00;99.90;;;;;;4955513;28;20420;-66
2023/02/21 03:06:08;;;;;;;57.47;15.43;;;9.00;99.90;;;;;;4938704;28;20111;-65
2023/02/21 03:09:00;;;;;;;40.70;15.70;;;9.00;99.90;;;;;;4954877;28;20021;-72
2023/02/21 03:11:26;;;;;;;42.90;15.75;;;8.90;99.90;;;;;;4953322;28;20029;-68
2023/02/21 03:14:10;;;;;;;46.47;17.17;;;9.00;99.90;;;;;;4955984;28;20043;-68
2023/02/21 03:16:54;;;;;;;40.15;15.80;;;8.90;99.90;;;;;;4955007;28;20293;-75
2023/02/21 03:19:24;;;;;;;38.83;16.88;;;8.90;99.90;;;;;;4955709;28;20620;-66
2023/02/21 03:22:00;;;;;;;34.80;16.05;;;8.90;99.90;;;;;;4954006;28;20044;-76
2023/02/21 03:24:27;;;;;;;45.72;17.60;;;9.00;99.90;;;;;;4954490;28;21288;-65
2023/02/21 03:27:01;;;;;;;46.85;17.23;;;9.00;99.90;;;;;;4953337;28;20040;-73
2023/02/21 03:29:27;;;;;;;45.58;16.30;;;8.90;99.90;;;;;;4954857;28;20029;-71
2023/02/21 03:34:37;;;;;;;39.90;17.13;;;9.00;99.90;;;;;;4954156;28;20036;-76
2023/02/21 03:37:05;;;;;;;46.92;17.35;;;8.90;99.90;;;;;;4953926;28;20032;-65
2023/02/21 03:39:31;;;;;;;43.17;18.38;;;8.90;99.90;;;;;;4953646;28;20029;-65
2023/02/21 03:41:56;;;;;;;52.77;19.40;;;8.90;99.90;;;;;;4936360;28;20361;-73
2023/02/21 03:44:22;;;;;;;36.95;16.88;;;8.90;99.90;;;;;;4938091;28;20637;-70
2023/02/21 03:46:48;;;;;;;44.00;18.33;;;8.90;99.90;;;;;;4965914;28;20052;-74
2023/02/21 03:49:13;;;;;;;47.10;18.67;;;8.90;99.90;;;;;;4953038;28;20433;-65
2023/02/21 03:51:39;;;;;;;40.97;17.10;;;8.90;99.90;;;;;;4952776;28;20664;-69
2023/02/21 03:54:05;;;;;;;36.83;16.87;;;8.90;99.90;;;;;;4951459;28;20335;-70
2023/02/21 03:56:30;;;;;;;44.93;17.40;;;8.90;99.90;;;;;;4949569;28;20037;-75
2023/02/21 03:58:56;;;;;;;37.30;16.20;;;8.80;99.90;;;;;;4934519;28;20106;-69
2023/02/21 04:01:22;;;;;;;48.37;17.50;;;8.80;99.90;;;;;;4952666;28;21294;-67
2023/02/21 04:03:47;;;;;;;46.93;18.07;;;8.80;99.90;;;;;;4953888;28;20680;-65
2023/02/21 04:06:13;;;;;;;47.33;18.00;;;8.90;99.90;;;;;;4950158;28;20941;-70
2023/02/21 04:08:39;;;;;;;39.40;16.63;;;8.90;99.90;;;;;;4953366;28;20033;-65
2023/02/21 04:11:04;;;;;;;45.23;17.43;;;8.80;99.90;;;;;;4953188;28;20631;-68
2023/02/21 04:13:30;;;;;;;54.23;18.70;;;8.80;99.90;;;;;;4951954;28;20061;-65
2023/02/21 04:15:56;;;;;;;39.23;16.70;;;8.80;99.90;;;;;;4933134;28;20179;-68
2023/02/21 04:18:21;;;;;;;38.63;17.93;;;8.80;99.90;;;;;;4933148;28;20037;-74
2023/02/21 04:20:47;;;;;;;40.20;18.97;;;8.80;99.90;;;;;;4949987;28;20651;-65
2023/02/21 04:23:18;;;;;;;46.43;17.73;;;8.80;99.90;;;;;;4950934;28;20037;-67
2023/02/21 04:25:44;;;;;;;44.15;18.55;;;8.80;99.90;;;;;;4950239;28;20094;-65
2023/02/21 04:28:09;;;;;;;46.47;17.33;;;8.80;99.90;;;;;;4951680;28;23541;-66
2023/02/21 04:30:36;;;;;;;48.57;18.20;;;8.70;99.90;;;;;;4950567;28;20017;-69
2023/02/21 04:33:02;;;;;;;49.25;20.40;;;8.80;99.90;;;;;;4933036;28;20055;-67
2023/02/21 04:35:28;;;;;;;41.10;17.85;;;8.70;99.90;;;;;;4935063;28;20033;-67
2023/02/21 04:37:53;;;;;;;50.53;18.47;;;8.70;99.90;;;;;;4932265;28;20032;-73
2023/02/21 04:40:19;;;;;;;47.00;19.93;;;8.70;99.90;;;;;;4933533;28;20095;-67
2023/02/21 04:42:45;;;;;;;51.60;19.40;;;8.70;99.90;;;;;;4952171;28;23056;-67
2023/02/21 04:45:11;;;;;;;51.67;18.63;;;8.70;99.90;;;;;;4950890;28;20108;-73
2023/02/21 04:47:36;;;;;;;50.60;20.33;;;8.70;99.90;;;;;;4951578;28;20025;-69
2023/02/21 04:50:03;;;;;;;48.43;19.70;;;8.70;99.90;;;;;;4951313;28;20055;-69
2023/02/21 04:52:29;;;;;;;52.50;19.30;;;8.70;99.90;;;;;;4932659;28;20115;-74
2023/02/21 04:54:55;;;;;;;48.20;20.70;;;8.70;99.90;;;;;;4952262;28;20030;-74
2023/02/21 04:57:20;;;;;;;51.00;20.17;;;8.70;99.90;;;;;;4948734;28;20036;-66
2023/02/21 04:59:46;;;;;;;45.40;20.67;;;8.80;99.90;;;;;;4950070;28;20029;-66
2023/02/21 05:02:12;;;;;;;43.10;19.63;;;8.80;99.90;;;;;;4953738;28;23783;-70
2023/02/21 05:04:38;;;;;;;41.17;19.03;;;8.70;99.90;;;;;;4949800;28;20028;-72
2023/02/21 05:07:04;;;;;;;45.53;20.55;;;8.70;99.90;;;;;;4934656;28;20434;-65
2023/02/21 05:09:30;;;;;;;47.33;19.90;;;8.70;99.90;;;;;;4930366;28;21851;-66
2023/02/21 05:11:56;;;;;;;46.55;20.60;;;8.70;99.90;;;;;;4948878;28;20029;-73
2023/02/21 05:14:22;;;;;;;54.47;20.83;;;8.60;99.90;;;;;;4950725;28;20097;-67
2023/02/21 05:16:47;;;;;;;51.53;20.63;;;8.70;99.90;;;;;;4952380;28;20365;-72
2023/02/21 05:19:25;;;;;;;43.03;19.60;;;8.60;99.90;;;;;;4949897;28;20028;-75
2023/02/21 05:21:55;;;;;;;57.10;22.75;;;8.70;99.90;;;;;;4949938;28;20173;-68
2023/02/21 05:24:22;;;;;;;43.22;20.10;;;8.60;99.90;;;;;;4951937;28;21344;-74
2023/02/21 05:26:47;;;;;;;43.53;20.67;;;8.60;99.90;;;;;;4948141;28;20048;-71
2023/02/21 05:29:14;;;;;;;49.60;19.90;;;8.70;99.90;;;;;;4950876;28;20052;-68
2023/02/21 05:31:39;;;;;;;50.80;21.23;;;8.80;99.90;;;;;;4949793;28;20086;-66
2023/02/21 05:34:05;;;;;;;52.27;21.43;;;8.80;99.90;;;;;;4950976;28;20334;-69
2023/02/21 05:36:31;;;;;;;46.43;21.27;;;8.80;99.90;;;;;;4951064;28;20056;-72
2023/02/21 05:38:56;;;;;;;45.60;20.63;;;8.80;99.90;;;;;;4951861;28;20116;-66
2023/02/21 05:41:23;;;;;;;50.40;21.27;;;8.80;99.90;;;;;;4951954;28;20033;-67
2023/02/21 05:43:49;;;;;;;57.20;21.60;;;8.80;99.90;;;;;;4955736;28;20027;-69
2023/02/21 05:46:19;;;;;;;47.03;19.98;;;8.80;99.90;;;;;;4952063;28;20081;-66
2023/02/21 05:48:45;;;;;;;48.45;20.58;;;8.70;99.90;;;;;;4933173;28;20106;-75
2023/02/21 05:51:11;;;;;;;54.77;21.03;;;8.80;99.90;;;;;;4950682;28;20017;-76
2023/02/21 05:53:37;;;;;;;43.97;19.80;;;8.80;99.90;;;;;;4949396;28;20258;-75
2023/02/21 05:56:02;;;;;;;54.47;21.23;;;8.80;99.90;;;;;;4951500;28;20033;-69
2023/02/21 05:58:28;;;;;;;54.17;22.47;;;8.70;99.90;;;;;;4949560;28;20335;-74
2023/02/21 06:00:54;;;;;;;57.17;22.53;;;8.80;99.90;;;;;;4949838;28;20532;-68
2023/02/21 06:03:20;;;;;;;60.13;20.90;;;8.80;99.90;;;;;;4933112;28;21150;-69
2023/02/21 06:05:45;;;;;;;49.73;20.63;;;8.80;99.90;;;;;;4948670;28;20017;-65
2023/02/21 06:08:11;;;;;;;57.87;22.60;;;8.80;99.90;;;;;;4949997;28;20021;-65
2023/02/21 06:10:37;;;;;;;51.27;23.03;;;8.80;99.90;;;;;;4952799;28;20048;-66
2023/02/21 06:13:02;;;;;;;52.53;22.47;;;8.70;99.90;;;;;;4955479;28;20028;-67
2023/02/21 06:15:28;;;;;;;51.07;20.97;;;8.70;99.90;;;;;;4936502;28;20732;-71
2023/02/21 06:17:54;;;;;;;56.90;23.53;;;8.70;99.90;;;;;;4954403;28;20522;-66
2023/02/21 06:20:20;;;;;;;55.87;22.73;;;8.70;99.90;;;;;;4954381;28;20170;-67
2023/02/21 06:22:46;;;;;;;50.50;21.13;;;8.70;99.90;;;;;;4954717;28;20071;-73
2023/02/21 06:25:12;;;;;;;56.92;23.02;;;8.70;99.90;;;;;;4952839;28;20029;-66
2023/02/21 06:27:38;;;;;;;53.97;23.00;;;8.70;99.90;;;;;;4953978;28;20128;-74
2023/02/21 06:30:05;;;;;;;51.17;22.60;;;8.80;99.90;;;;;;4953671;28;21617;-65
2023/02/21 06:32:30;;;;;;;56.47;21.70;;;8.70;99.90;;;;;;4954814;28;20120;-64
2023/02/21 06:34:56;;;;;;;56.77;22.63;;;8.80;99.90;;;;;;4953266;28;20029;-66
2023/02/21 06:37:22;;;;;;;51.23;21.33;;;8.80;99.90;;;;;;4955092;28;20446;-65
2023/02/21 06:39:48;;;;;;;52.77;21.27;;;8.70;99.90;;;;;;4955220;28;21097;-75
2023/02/21 06:42:15;;;;;;;54.00;22.40;;;8.70;99.90;;;;;;4953244;28;23784;-73
2023/02/21 06:44:45;;;;;;;52.30;22.67;;;8.70;99.90;;;;;;4955367;28;21297;-66
2023/02/21 06:47:11;;;;;;;56.40;21.13;;;8.70;99.90;;;;;;4953615;28;20029;-65
2023/02/21 06:49:37;;;;;;;61.60;23.55;;;8.70;99.90;;;;;;4934231;28;20323;-65
2023/02/21 06:52:03;;;;;;;56.63;23.23;;;8.70;99.90;;;;;;4952541;28;20036;-65
2023/02/21 06:54:29;;;;;;;55.23;22.60;;;8.70;99.90;;;;;;4952864;28;20029;-66
2023/02/21 06:56:55;;;;;;;56.13;22.73;;;8.70;99.90;;;;;;4953647;28;20257;-66
2023/02/21 06:59:21;;;;;;;64.20;23.58;;;8.70;99.90;;;;;;4954396;28;20028;-65
2023/02/21 07:01:47;;;;;;;53.20;23.30;;;8.70;99.90;;;;;;4952678;28;20103;-65
2023/02/21 07:04:13;;;;;;;59.43;22.63;;;8.70;99.90;;;;;;4954195;28;20040;-72
2023/02/21 07:06:38;;;;;;;57.73;24.03;;;8.60;99.90;;;;;;4954916;28;20104;-65
2023/02/21 07:09:05;;;;;;;54.77;23.37;;;8.60;99.90;;;;;;4956425;28;20052;-65
2023/02/21 07:11:33;;;;;;;60.47;22.40;;;8.70;99.90;;;;;;4952855;28;21128;-65
2023/02/21 07:13:58;;;;;;;54.40;22.25;;;8.70;99.90;;;;;;4954943;28;21101;-66
2023/02/21 07:16:24;;;;;;;59.70;23.50;;;8.70;99.90;;;;;;4953729;28;21032;-66
2023/02/21 07:18:50;;;;;;;59.47;24.13;;;8.60;99.90;;;;;;4952019;28;20114;-66
2023/02/21 07:21:18;;;;;;;57.10;24.10;;;8.70;99.90;;;;;;4953917;28;20261;-65
2023/02/21 07:23:44;;;;;;;56.33;21.88;;;8.70;99.90;;;;;;4953161;28;21560;-65
2023/02/21 07:26:10;;;;;;;68.43;24.00;;;8.60;99.90;;;;;;4955029;28;20351;-65
2023/02/21 07:28:36;;;;;;;54.90;23.40;;;8.70;99.90;;;;;;4952025;28;20033;-65
2023/02/21 07:31:02;;;;;;;58.67;23.17;;;8.70;99.90;;;;;;4953027;28;20971;-66
2023/02/21 07:33:29;;;;;;;55.80;23.08;;;8.70;99.90;;;;;;4952148;28;20059;-65
2023/02/21 07:35:55;;;;;;;61.60;23.70;;;8.70;99.90;;;;;;4953728;28;20025;-65
2023/02/21 07:38:26;;;;;;;58.43;25.03;;;8.70;99.90;;;;;;4952136;28;20020;-65
2023/02/21 07:40:57;;;;;;;57.20;24.38;;;8.70;99.90;;;;;;4952665;28;21884;-65
2023/02/21 07:43:25;;;;;;;56.33;23.77;;;8.70;99.90;;;;;;4954634;28;23719;-65
2023/02/21 07:45:50;;;;;;;55.92;22.92;;;8.70;99.90;;;;;;4955319;28;20025;-65
2023/02/21 07:48:16;;;;;;;60.73;23.67;;;8.70;99.90;;;;;;4963070;28;20421;-66
2023/02/21 07:50:43;;;;;;;62.17;25.70;;;8.70;99.90;;;;;;4962781;28;20043;-66
2023/02/21 07:53:09;;;;;;;;;;;8.80;99.90;;;;;;4947413;28;20036;-65
2023/02/21 07:55:35;;;;;;;49.70;21.33;;;8.70;99.90;;;;;;4964191;28;19913;-65
2023/02/21 07:58:01;;;;;;;56.80;23.47;;;8.80;99.90;;;;;;4963755;28;20039;-66
2023/02/21 08:00:27;;;;;;;54.63;23.40;;;8.80;99.90;;;;;;4963100;28;20433;-65
2023/02/21 08:02:53;;;;;;;56.30;24.20;;;8.80;99.90;;;;;;4962288;28;20076;-65
2023/02/21 08:05:19;;;;;;;53.30;22.43;;;8.80;99.90;;;;;;4963259;28;20039;-65
2023/02/21 08:07:45;;;;;;;;;;;8.80;99.90;;;;;;4963806;28;20032;-65
2023/02/21 08:10:18;;;;;;;55.22;23.77;;;8.80;99.90;;;;;;4963459;28;19912;-73
2023/02/21 08:12:43;;;;;;;53.28;23.67;;;8.80;99.90;;;;;;4962992;28;20054;-66
2023/02/21 08:15:09;;;;;;;54.33;23.10;;;8.80;99.90;;;;;;4962532;28;23184;-66
2023/02/21 08:17:35;;;;;;;57.13;24.60;;;8.80;99.90;;;;;;4961856;28;20417;-71
2023/02/21 08:20:01;;;;;;;58.30;25.17;;;8.70;99.90;;;;;;4962728;28;20604;-65
2023/02/21 08:22:27;;;;;;;55.15;23.60;;;8.80;99.90;;;;;;4960009;28;20773;-65
2023/02/21 08:24:53;;;;;;;57.37;24.43;;;8.80;99.90;;;;;;4963558;28;20029;-66
2023/02/21 08:27:18;;;;;;;58.07;25.17;;;8.80;99.90;;;;;;4963831;28;20087;-66
2023/02/21 08:29:44;;;;;;;61.97;24.93;;;8.90;99.90;;;;;;4963300;28;20025;-66
2023/02/21 08:32:10;;;;;;;55.53;24.60;;;8.80;99.90;;;;;;4962264;28;20021;-66
2023/02/21 08:34:36;;;;;;;53.70;24.47;;;8.90;99.90;;;;;;5042706;28;20427;-67
2023/02/21 08:37:05;;;;;;;59.50;24.23;;;8.90;99.90;;;;;;5054883;28;20037;-75
2023/02/21 08:39:31;;;;;;;57.67;24.02;;;8.90;99.90;;;;;;5037236;28;20025;-66
2023/02/21 08:41:57;;;;;;;66.10;26.13;;;8.90;99.90;;;;;;5029232;28;20021;-66
2023/02/21 08:44:23;;;;;;;66.47;25.50;;;9.00;99.90;;;;;;5053585;28;20142;-65
2023/02/21 08:46:48;;;;;;;61.83;24.90;;;9.00;99.90;;;;;;5046645;28;20041;-66
2023/02/21 08:49:14;;;;;;;78.60;36.33;;;9.00;99.90;;;;;;5042779;28;20033;-75
2023/02/21 08:51:40;;;;;;;74.43;31.03;;;9.00;99.90;;;;;;5048023;28;20026;-75
2023/02/21 08:54:06;;;;;;;72.22;27.42;;;9.00;99.90;;;;;;5045960;28;20261;-66
2023/02/21 08:56:33;;;;;;;50.37;22.57;;;9.00;99.90;;;;;;4956564;28;20039;-66
2023/02/21 08:58:59;;;;;;;58.72;26.23;;;9.10;99.90;;;;;;4938360;28;20269;-66
2023/02/21 09:01:31;;;;;;;60.07;23.93;;;9.10;99.90;;;;;;4939899;28;20327;-65
2023/02/21 09:03:56;;;;;;;73.13;25.35;;;9.10;99.90;;;;;;4939908;28;20032;-65
2023/02/21 09:06:22;;;;;;;59.50;26.03;;;9.10;99.90;;;;;;4935410;28;20712;-74
2023/02/21 09:08:48;;;;;;;54.40;24.23;;;9.20;99.90;;;;;;4945017;28;20029;-65
2023/02/21 09:11:13;;;;;;;64.60;24.97;;;9.20;99.90;;;;;;4940016;28;20025;-65
2023/02/21 09:13:40;;;;;;;56.43;24.97;;;9.20;99.90;;;;;;4951062;28;20021;-65
2023/02/21 09:16:06;;;;;;;57.65;25.70;;;9.30;99.90;;;;;;4938689;28;20857;-74
2023/02/21 09:18:32;;;;;;;58.43;25.03;;;9.30;99.90;;;;;;4938725;28;20025;-65
2023/02/21 09:20:58;;;;;;;56.65;24.38;;;9.30;99.90;;;;;;4935755;28;20025;-66
2023/02/21 09:23:25;;;;;;;58.83;23.98;;;9.40;99.90;;;;;;4929117;28;20033;-70
2023/02/21 09:25:51;;;;;;;50.38;21.85;;;9.50;99.90;;;;;;4957349;28;20041;-65
2023/02/21 09:28:18;;;;;;;54.90;23.73;;;9.50;99.90;;;;;;4943424;28;20082;-65
2023/02/21 09:30:44;;;;;;;46.10;22.27;;;9.50;99.90;;;;;;4943194;28;20259;-66
2023/02/21 09:33:10;;;;;;;55.22;23.27;;;9.50;99.90;;;;;;4943319;28;20056;-65
2023/02/21 09:35:36;;;;;;;57.90;25.00;;;9.50;99.90;;;;;;4931055;28;20025;-66
2023/02/21 09:38:02;;;;;;;57.00;23.37;;;9.60;99.90;;;;;;4944724;28;20281;-65
2023/02/21 09:40:31;;;;;;;56.83;22.52;;;9.60;99.90;;;;;;4944270;28;20029;-65
2023/02/21 09:42:59;;;;;;;52.17;23.63;;;9.60;99.90;;;;;;4943956;28;20171;-65
2023/02/21 09:45:29;;;;;;;54.33;21.38;;;9.70;99.90;;;;;;4940115;28;20103;-65
2023/02/21 09:47:58;;;;;;;53.00;22.70;;;9.70;99.90;;;;;;4946396;28;20055;-66
2023/02/21 09:50:30;;;;;;;45.80;20.95;;;9.70;99.90;;;;;;4943319;28;20016;-66
2023/02/21 09:52:59;;;;;;;51.15;21.10;;;9.70;99.90;;;;;;4941315;28;20025;-65
2023/02/21 09:55:34;;;;;;;54.05;22.65;;;9.70;99.90;;;;;;4906351;28;20060;-66
2023/02/21 09:58:00;;;;;;;48.58;21.23;;;9.70;99.90;;;;;;4928922;28;20138;-65
2023/02/21 10:00:34;;;;;;;56.80;22.13;;;9.70;99.90;;;;;;4944916;28;20021;-65
2023/02/21 10:03:10;;;;;;;50.40;21.95;;;9.70;99.90;;;;;;4940527;28;20059;-65
2023/02/21 10:05:42;;;;;;;50.70;23.30;;;9.70;99.90;;;;;;4941852;28;20342;-67
2023/02/21 10:08:37;;;;;;;52.28;23.17;;;9.80;99.90;;;;;;4942710;28;20028;-66
2023/02/21 10:11:36;;;;;;;43.58;20.33;;;9.80;99.90;;;;;;4944254;28;20025;-66
2023/02/21 10:14:23;;;;;;;43.72;21.42;;;9.80;99.90;;;;;;4931866;28;20033;-66
2023/02/21 10:16:58;;;;;;;44.30;21.25;;;9.80;99.90;;;;;;4942732;28;20104;-73
2023/02/21 10:19:47;;;;;;;46.70;21.17;;;9.80;99.90;;;;;;4923181;28;20017;-65
2023/02/21 10:22:27;;;;;;;44.40;20.90;;;9.80;99.90;;;;;;4942476;28;20024;-65
2023/02/21 10:24:53;;;;;;;46.90;22.33;;;9.80;99.90;;;;;;4940803;28;20029;-65
2023/02/21 10:27:25;;;;;;;43.63;20.58;;;9.80;99.90;;;;;;4945528;28;20041;-66
2023/02/21 10:29:54;;;;;;;45.35;19.98;;;9.80;99.90;;;;;;4946941;28;20666;-66
2023/02/21 10:32:21;;;;;;;43.15;20.52;;;9.80;99.90;;;;;;4948145;28;20941;-65
2023/02/21 10:34:47;;;;;;;44.00;21.05;;;9.80;99.90;;;;;;4945007;28;20035;-65
2023/02/21 10:37:51;;;;;;;43.88;22.02;;;9.80;99.90;;;;;;5004415;28;20029;-75
2023/02/21 10:40:34;;;;;;;44.60;20.52;;;9.90;99.90;;;;;;4967465;28;20035;-74
2023/02/21 10:43:08;;;;;;;46.17;20.33;;;9.90;99.90;;;;;;4882767;28;20207;-66
2023/02/21 10:45:56;;;;;;;44.53;21.42;;;9.90;99.90;;;;;;4869409;28;24090;-65
2023/02/21 10:48:25;;;;;;;44.47;20.88;;;9.90;99.90;;;;;;4862637;28;20041;-66
2023/02/21 10:51:13;;;;;;;46.65;21.33;;;10.00;99.90;;;;;;4893657;28;20509;-65
2023/02/21 10:53:45;;;;;;;43.85;21.35;;;10.00;99.90;;;;;;4865441;28;20129;-65
2023/02/21 10:56:19;;;;;;;39.25;19.42;;;10.00;99.90;;;;;;4867239;28;20377;-66
2023/02/21 10:59:00;;;;;;;40.75;20.50;;;10.10;99.90;;;;;;4867151;28;20138;-72
2023/02/21 11:01:25;;;;;;;45.10;20.67;;;10.00;99.90;;;;;;4868968;28;20065;-65
2023/02/21 11:04:15;;;;;;;42.20;19.00;;;10.00;99.90;;;;;;4853512;28;20050;-66
2023/02/21 11:06:55;;;;;;;40.72;20.50;;;10.10;99.90;;;;;;4863164;28;20401;-69
2023/02/21 11:09:27;;;;;;;40.25;19.35;;;10.10;99.90;;;;;;4869646;28;20071;-66
2023/02/21 11:12:20;;;;;;;39.63;20.23;;;10.10;99.90;;;;;;4868750;28;20022;-65
2023/02/21 11:14:52;;;;;;;39.70;18.88;;;10.10;99.90;;;;;;4848725;28;20046;-65
2023/02/21 11:17:27;;;;;;;36.75;18.73;;;10.10;99.90;;;;;;4916455;28;20041;-65
2023/02/21 11:20:17;;;;;;;42.22;21.20;;;10.10;99.90;;;;;;4947967;28;20032;-65
2023/02/21 11:22:46;;;;;;;45.50;20.38;;;10.00;99.90;;;;;;4942214;28;20053;-66
2023/02/21 11:25:27;;;;;;;36.45;17.80;;;10.10;99.90;;;;;;4947062;28;20024;-65
2023/02/21 11:28:21;;;;;;;37.40;19.17;;;10.10;99.90;;;;;;4946498;28;20032;-65
2023/02/21 11:30:46;;;;;;;38.92;19.02;;;10.10;99.90;;;;;;4947158;28;20091;-65
2023/02/21 11:33:18;;;;;;;39.37;17.87;;;10.20;99.90;;;;;;4944749;28;20051;-65
2023/02/21 11:35:50;;;;;;;34.00;18.70;;;10.10;99.90;;;;;;4946172;28;20025;-66
2023/02/21 11:38:35;;;;;;;38.75;19.77;;;10.20;99.90;;;;;;4945008;28;20032;-65
2023/02/21 11:41:01;;;;;;;37.38;19.60;;;10.20;99.90;;;;;;4946688;28;20025;-65
2023/02/21 11:43:28;;;;;;;;;;;10.10;99.90;;;;;;4931086;28;20028;-65
2023/02/21 11:46:12;;;;;;;34.75;18.52;;;10.20;99.90;;;;;;4945583;28;19913;-65
2023/02/21 11:49:10;;;;;;;35.17;17.77;;;10.20;99.90;;;;;;4943516;28;20508;-65
2023/02/21 11:51:52;;;;;;;32.38;17.40;;;10.10;99.90;;;;;;4946303;28;20075;-65
2023/02/21 11:54:23;;;;;;;37.35;18.45;;;10.10;99.90;;;;;;4946837;28;23617;-65
2023/02/21 11:56:57;;;;;;;36.05;19.13;;;10.20;99.90;;;;;;4944592;28;20024;-65
2023/02/21 11:59:57;;;;;;;35.03;17.05;;;10.10;99.90;;;;;;4945465;28;20021;-66
2023/02/21 12:02:29;;;;;;;36.55;17.92;;;10.10;99.90;;;;;;4943163;28;20851;-67
2023/02/21 12:05:32;;;;;;;38.95;18.75;;;10.10;99.90;;;;;;4944703;28;20112;-66
2023/02/21 12:08:22;;;;;;;36.20;18.33;;;10.00;99.90;;;;;;4945039;28;20021;-67
2023/02/21 12:11:03;;;;;;;33.50;18.38;;;10.00;99.90;;;;;;4947861;28;20025;-71
2023/02/21 12:13:59;;;;;;;40.65;18.33;;;10.00;99.90;;;;;;4945039;28;20100;-75
2023/02/21 12:16:49;;;;;;;34.42;17.83;;;10.00;99.90;;;;;;4948051;28;20089;-76
2023/02/21 12:19:24;;;;;;;33.80;18.55;;;10.00;99.90;;;;;;4946891;28;20029;-65
2023/02/21 12:22:18;;;;;;;38.53;19.98;;;10.00;99.90;;;;;;4945202;28;20754;-66
2023/02/21 12:25:09;;;;;;;38.60;19.52;;;10.00;99.90;;;;;;4946419;28;20126;-69
2023/02/21 12:28:12;;;;;;;40.95;19.20;;;10.00;99.90;;;;;;4946458;28;20044;-66
2023/02/21 12:30:50;;;;;;;42.58;19.48;;;10.00;99.90;;;;;;4905349;28;20389;-66
2023/02/21 12:34:12;;;;;;;37.38;19.27;;;9.90;99.90;;;;;;4954470;28;22167;-66
2023/02/21 12:37:02;;;;;;;39.25;19.45;;;9.90;99.90;;;;;;4863990;28;20039;-66
2023/02/21 12:39:46;;;;;;;38.78;18.88;;;10.00;99.90;;;;;;4861661;28;20125;-67
2023/02/21 12:42:34;;;;;;;42.25;19.63;;;10.00;99.90;;;;;;4929814;28;20049;-75
2023/02/21 12:45:31;;;;;;;37.03;19.13;;;10.00;99.90;;;;;;4943208;28;23671;-67
2023/02/21 12:48:10;;;;;;;36.85;19.00;;;10.00;99.90;;;;;;4936910;28;20788;-73
2023/02/21 12:50:40;;;;;;;46.90;22.00;;;9.90;99.90;;;;;;4942353;28;21470;-66
2023/02/21 12:53:49;;;;;;;41.90;20.50;;;9.90;99.90;;;;;;4944934;28;20456;-68
2023/02/21 12:56:32;;;;;;;165.23;63.95;;;9.90;99.90;;;;;;4911744;28;20036;-73
2023/02/21 12:59:17;;;;;;;82.60;36.13;;;9.90;99.90;;;;;;4932854;28;20091;-70
2023/02/21 13:01:52;;;;;;;61.72;27.70;;;9.90;99.90;;;;;;4948550;28;20149;-69
2023/02/21 13:04:23;;;;;;;62.78;24.83;;;9.80;99.90;;;;;;4947598;28;20025;-67
2023/02/21 13:07:06;;;;;;;59.70;23.05;;;9.70;99.90;;;;;;4947271;28;20028;-65
2023/02/21 13:09:58;;;;;;;66.97;26.63;;;9.70;99.90;;;;;;4949388;28;20031;-65
2023/02/21 13:12:57;;;;;;;61.88;23.92;;;9.60;99.90;;;;;;4936578;28;20125;-76
2023/02/21 13:15:25;;;;;;;58.67;22.48;;;9.60;99.90;;;;;;4959438;28;20064;-70
2023/02/21 13:18:00;;;;;;;58.83;21.65;;;9.60;99.90;;;;;;4958372;28;20044;-69
2023/02/21 13:20:33;;;;;;;55.50;21.02;;;9.60;99.90;;;;;;4941031;28;20021;-71
2023/02/21 13:22:59;;;;;;;58.28;20.98;;;9.60;99.90;;;;;;4940053;28;21803;-74
2023/02/21 13:25:39;;;;;;;60.90;22.50;;;9.60;99.90;;;;;;4924647;28;20923;-68
2023/02/21 13:28:17;;;;;;;63.83;22.05;;;9.60;99.90;;;;;;4943141;28;20016;-68
2023/02/21 13:30:59;;;;;;;56.42;20.85;;;9.60;99.90;;;;;;4946648;28;20373;-69
2023/02/21 13:33:45;;;;;;;53.90;20.38;;;9.50;99.90;;;;;;4945044;28;20118;-75
2023/02/21 13:36:22;;;;;;;52.07;19.53;;;9.50;99.90;;;;;;4925469;28;20032;-67
2023/02/21 13:39:10;;;;;;;48.53;19.75;;;9.50;99.90;;;;;;4942525;28;20646;-66
2023/02/21 13:41:42;;;;;;;47.70;18.92;;;9.50;99.90;;;;;;4943675;28;20029;-68
2023/02/21 13:44:11;;;;;;;45.15;17.02;;;9.50;99.90;;;;;;4943479;28;21984;-67
2023/02/21 13:46:37;;;;;;;49.05;17.77;;;9.50;99.90;;;;;;4941728;28;20027;-73
2023/02/21 13:49:37;;;;;;;42.13;16.40;;;9.40;99.90;;;;;;4940111;28;20025;-69
2023/02/21 13:52:21;;;;;;;37.88;15.95;;;9.40;99.90;;;;;;4926654;28;20024;-69
2023/02/21 13:55:16;;;;;;;39.88;15.40;;;9.50;99.90;;;;;;4941320;28;20043;-73
2023/02/21 13:57:56;;;;;;;44.40;15.43;;;9.40;99.90;;;;;;4940825;28;20028;-66
2023/02/21 14:00:27;;;;;;;36.92;13.43;;;9.40;99.90;;;;;;4942646;28;21097;-74
2023/02/21 14:03:24;;;;;;;31.70;12.60;;;9.40;99.90;;;;;;4942377;28;20047;-68
2023/02/21 14:05:49;;;;;;;;;;;9.40;99.90;;;;;;4941688;28;20068;-68
2023/02/21 14:08:32;;;;;;;29.60;11.37;;;9.50;99.90;;;;;;4938341;28;19912;-67
2023/02/21 14:11:04;;;;;;;26.75;11.45;;;9.50;99.90;;;;;;4922804;28;21618;-69
2023/02/21 14:13:50;;;;;;;29.90;11.90;;;9.50;99.90;;;;;;4924424;28;20032;-67
2023/02/21 14:16:29;;;;;;;34.15;12.43;;;9.50;99.90;;;;;;4938537;28;20168;-69
2023/02/21 14:18:56;;;;;;;28.88;11.93;;;9.50;99.90;;;;;;4922384;28;23380;-73
2023/02/21 14:21:31;;;;;;;29.60;11.32;;;9.50;99.90;;;;;;4941676;28;20112;-70
2023/02/21 14:24:02;;;;;;;25.35;11.40;;;9.50;99.90;;;;;;4942434;28;20029;-67
2023/02/21 14:26:49;;;;;;;26.38;10.55;;;9.50;99.90;;;;;;4920998;28;20036;-67
2023/02/21 14:29:27;;;;;;;38.25;16.48;;;9.40;99.90;;;;;;4925791;28;20073;-68
2023/02/21 14:32:02;;;;;;;27.45;13.10;;;9.40;99.90;;;;;;4911868;28;20056;-66
2023/02/21 14:34:46;;;;;;;25.48;11.18;;;9.40;99.90;;;;;;4929219;28;20078;-66
2023/02/21 14:37:26;;;;;;;26.50;10.02;;;9.40;99.90;;;;;;4928993;28;20094;-67
2023/02/21 14:40:13;;;;;;;26.88;11.15;;;9.30;99.90;;;;;;4937558;28;20126;-67
2023/02/21 14:43:01;;;;;;;24.30;9.90;;;9.40;99.90;;;;;;4943923;28;20124;-74
2023/02/21 14:45:38;;;;;;;22.17;9.65;;;9.40;99.90;;;;;;4942563;28;20051;-67
2023/02/21 14:48:30;;;;;;;31.25;12.90;;;9.50;99.90;;;;;;4942073;28;20025;-67
2023/02/21 14:51:18;;;;;;;38.15;16.08;;;9.40;99.90;;;;;;4924865;28;20896;-71
2023/02/21 14:54:25;;;;;;;36.22;16.08;;;9.30;99.90;;;;;;4943597;28;20639;-74
2023/02/21 14:57:14;;;;;;;43.17;17.30;;;9.30;99.90;;;;;;4898100;28;20083;-67
2023/02/21 15:00:12;;;;;;;42.38;18.05;;;9.30;99.90;;;;;;4943306;28;20032;-70
2023/02/21 15:02:48;;;;;;;45.75;19.83;;;9.30;99.90;;;;;;4872876;28;20085;-67
2023/02/21 15:05:20;;;;;;;51.53;19.45;;;9.20;99.90;;;;;;4873694;28;20041;-74
2023/02/21 15:07:48;;;;;;;51.67;24.02;;;9.10;99.90;;;;;;4872804;28;20450;-72
2023/02/21 15:10:19;;;;;;;48.80;21.55;;;9.20;99.90;;;;;;4873673;28;20093;-72
2023/02/21 15:12:52;;;;;;;47.42;20.48;;;9.10;99.90;;;;;;4874167;28;20812;-69
2023/02/21 15:15:40;;;;;;;53.22;20.98;;;9.10;99.90;;;;;;4876262;28;20042;-73
2023/02/21 15:18:10;;;;;;;49.33;20.15;;;9.00;99.90;;;;;;4876626;28;20101;-74
2023/02/21 15:20:41;;;;;;;53.97;22.58;;;9.00;99.90;;;;;;4875721;28;20041;-67
2023/02/21 15:23:13;;;;;;;57.10;24.65;;;9.00;99.90;;;;;;4875489;28;20038;-73
2023/02/21 15:25:40;;;;;;;49.22;22.50;;;9.00;99.90;;;;;;4874869;28;20049;-73